logo
Search for airport 
image banner adimage banner adimage banner ad
image banner ad

60VT - Northwestern Medical Center

Located in St Albans City, United States

ICAO - 60VT, IATA -

Data provided by Airmate  

General information

Coordinates: N44°47'33" W73°4'38"
Elevation is 497 feet MSL.
 
View others Airports in Vermont

Operational data

Special qualification required
Current time UTC:
Current local time:
Weather at : KFSO - Franklin County State ( 16 km )
METAR: KFSO 131555Z AUTO 23007G15KT 200V260 10SM OVC055 10/01 A2939 RMK AO2 T01040009
View NOTAMs / SUP AIP / TFR affecting this airport [VIEW]
Communications frequencies: [VIEW]

Runways:

Airport contact information

Address: St Albans City United States

Satellite view of 60VT